Terminal Aerodrome Forecast
Issued by NWS

Home | Current Version | Previous Version | Graphics & Text | Print | Product List | Glossary On
Versions: 1 2 3 4 5 6 7 8 9 10 11 12 13 14 15 16 17 18 19 20 21 22 23 24
000
FTUS43 KMPX 300338 AAB
TAFRNH
TAF AMD
KRNH 300338Z 3004/3024 VRB04KT 5SM BR SKC
      TEMPO 3008/3012 1SM BR
     FM301200 02006KT P6SM OVC015
     FM301500 02006KT P6SM BKN050=

USA.gov is the U.S. government's official web portal to all federal, state and local government web resources and services.